createdAt,value
2017-10-30T00:00:42.016Z,0
2017-10-30T00:01:41.987Z,0
2017-10-30T00:02:42.036Z,1.8
2017-10-30T00:03:42.087Z,0
2017-10-30T00:04:42.047Z,1.8
2017-10-30T00:05:41.991Z,0
2017-10-30T00:06:42.019Z,1.8
2017-10-30T00:07:42.020Z,0
2017-10-30T00:08:42.102Z,0
2017-10-30T00:09:42.010Z,3.9
2017-10-30T00:10:42.013Z,1.8
2017-10-30T00:11:42.021Z,0
2017-10-30T00:12:42.011Z,3.9
2017-10-30T00:13:42.055Z,1.8
2017-10-30T00:14:41.991Z,3.9
2017-10-30T00:15:41.987Z,3.9
2017-10-30T00:16:42.011Z,1.8
2017-10-30T00:17:41.998Z,0
2017-10-30T00:18:42.139Z,3.9
2017-10-30T00:19:42.031Z,0
2017-10-30T00:20:42.058Z,0
2017-10-30T00:21:42.010Z,1.8
2017-10-30T00:22:42.004Z,0
2017-10-30T00:23:42.058Z,0
2017-10-30T00:24:42.014Z,0
2017-10-30T00:25:41.995Z,3.9
2017-10-30T00:26:42.013Z,1.8
2017-10-30T00:27:42.024Z,6.6
2017-10-30T00:28:42.047Z,3.9
2017-10-30T00:29:42.010Z,0
2017-10-30T00:30:41.975Z,0
2017-10-30T00:31:42.016Z,1.8
2017-10-30T00:32:41.991Z,1.8
2017-10-30T00:33:42.096Z,1.8
2017-10-30T00:34:42.053Z,3.9
2017-10-30T00:35:41.998Z,1.8
2017-10-30T00:36:41.988Z,1.8
2017-10-30T00:37:41.996Z,3.9
2017-10-30T00:38:42.052Z,0
2017-10-30T00:39:42.011Z,0
2017-10-30T00:40:41.975Z,1.8
2017-10-30T00:41:41.992Z,1.8
2017-10-30T00:42:42.015Z,0
2017-10-30T00:43:42.057Z,1.8
2017-10-30T00:44:42.016Z,0
2017-10-30T00:45:42.024Z,1.8
2017-10-30T00:46:41.991Z,0
2017-10-30T00:47:41.969Z,0
2017-10-30T00:48:42.054Z,0
2017-10-30T00:49:41.988Z,0
2017-10-30T00:50:42.354Z,0
2017-10-30T00:51:41.952Z,0
2017-10-30T00:52:42.004Z,0
2017-10-30T00:53:42.068Z,0
2017-10-30T00:54:42.004Z,0
2017-10-30T00:55:41.993Z,0
2017-10-30T00:56:41.983Z,0
2017-10-30T00:57:42.002Z,0
2017-10-30T00:58:41.971Z,0
2017-10-30T00:59:42.002Z,0
2017-10-30T01:00:41.980Z,0
2017-10-30T01:01:41.987Z,1.8
2017-10-30T01:02:42.031Z,1.8
2017-10-30T01:03:41.987Z,0
2017-10-30T01:04:41.967Z,3.9
2017-10-30T01:05:41.980Z,1.8
2017-10-30T01:06:42.007Z,3.9
2017-10-30T01:07:42.010Z,0
2017-10-30T01:08:41.968Z,0
2017-10-30T01:09:41.968Z,6.6
2017-10-30T01:10:41.967Z,3.9
2017-10-30T01:11:41.983Z,1.8
2017-10-30T01:12:41.995Z,1.8
2017-10-30T01:13:41.981Z,1.8
2017-10-30T01:14:42.021Z,1.8
2017-10-30T01:15:41.999Z,0
2017-10-30T01:16:41.965Z,1.8
2017-10-30T01:17:42.002Z,0
2017-10-30T01:18:41.979Z,1.8
2017-10-30T01:19:42.067Z,3.9
2017-10-30T01:20:41.963Z,1.8
2017-10-30T01:21:41.998Z,3.9
2017-10-30T01:22:41.990Z,6.6
2017-10-30T01:23:41.970Z,6.6
2017-10-30T01:24:42.019Z,0
2017-10-30T01:25:41.973Z,0
2017-10-30T01:26:41.985Z,0
2017-10-30T01:27:41.960Z,1.8
2017-10-30T01:28:41.969Z,1.8
2017-10-30T01:29:42.018Z,1.8
2017-10-30T01:30:41.977Z,1.8
2017-10-30T01:31:41.989Z,0
2017-10-30T01:32:41.959Z,0
2017-10-30T01:33:41.963Z,0
2017-10-30T01:34:42.036Z,0
2017-10-30T01:35:41.956Z,0
2017-10-30T01:36:41.989Z,0
2017-10-30T01:37:41.983Z,9.5
2017-10-30T01:38:41.970Z,6.6
2017-10-30T01:39:42.090Z,3.9
2017-10-30T01:40:41.982Z,3.9
2017-10-30T01:41:41.999Z,6.6
2017-10-30T01:42:41.973Z,9.5
2017-10-30T01:43:42.002Z,6.6
2017-10-30T01:44:42.015Z,3.9
2017-10-30T01:45:41.980Z,1.8
2017-10-30T01:46:41.970Z,3.9
2017-10-30T01:47:41.966Z,6.6
2017-10-30T01:48:41.946Z,18.3
2017-10-30T01:49:41.999Z,6.6
2017-10-30T01:50:41.956Z,6.6
2017-10-30T01:51:41.988Z,9.5
2017-10-30T01:52:41.980Z,9.5
2017-10-30T01:53:41.974Z,6.6
2017-10-30T01:54:41.944Z,1.8
2017-10-30T01:55:41.983Z,1.8
2017-10-30T01:56:41.963Z,0
2017-10-30T01:57:41.980Z,0
2017-10-30T01:58:41.959Z,0
2017-10-30T01:59:41.951Z,0
2017-10-30T02:00:41.951Z,0
2017-10-30T02:01:41.948Z,1.8
2017-10-30T02:02:41.950Z,1.8
2017-10-30T02:03:41.970Z,0
2017-10-30T02:04:41.939Z,0
2017-10-30T02:05:42.007Z,0
2017-10-30T02:06:41.975Z,0
2017-10-30T02:07:41.935Z,0
2017-10-30T02:08:41.936Z,0
2017-10-30T02:09:41.963Z,3.9
2017-10-30T02:10:41.935Z,0
2017-10-30T02:11:41.931Z,0
2017-10-30T02:12:41.952Z,0
2017-10-30T02:13:41.965Z,0
2017-10-30T02:14:41.945Z,1.8
2017-10-30T02:15:41.964Z,0
2017-10-30T02:16:41.933Z,6.6
2017-10-30T02:17:41.962Z,0
2017-10-30T02:18:41.971Z,3.9
2017-10-30T02:19:41.971Z,1.8
2017-10-30T02:20:41.933Z,0
2017-10-30T02:21:41.941Z,0
2017-10-30T02:22:41.935Z,1.8
2017-10-30T02:23:41.973Z,1.8
2017-10-30T02:24:41.969Z,0
2017-10-30T02:25:41.993Z,0
2017-10-30T02:26:41.976Z,3.9
2017-10-30T02:27:41.966Z,0
2017-10-30T02:28:41.949Z,0
2017-10-30T02:29:41.965Z,0
2017-10-30T02:30:41.951Z,0
2017-10-30T02:31:41.951Z,0
2017-10-30T02:32:41.954Z,0
2017-10-30T02:33:41.922Z,0
2017-10-30T02:34:41.923Z,0
2017-10-30T02:35:41.935Z,0
2017-10-30T02:36:41.973Z,0
2017-10-30T02:37:41.948Z,0
2017-10-30T02:38:41.931Z,0
2017-10-30T02:39:41.922Z,0
2017-10-30T02:40:41.952Z,0
2017-10-30T02:41:41.923Z,0
2017-10-30T02:42:41.942Z,0
2017-10-30T02:43:41.925Z,0
2017-10-30T02:44:41.953Z,9.5
2017-10-30T02:45:41.921Z,0
2017-10-30T02:46:41.954Z,0
2017-10-30T02:47:41.914Z,1.8
2017-10-30T02:48:41.926Z,1.8
2017-10-30T02:49:41.921Z,6.6
2017-10-30T02:50:42.004Z,0
2017-10-30T02:51:41.952Z,6.6
2017-10-30T02:52:41.945Z,6.6
2017-10-30T02:53:42.010Z,6.6
2017-10-30T02:54:41.946Z,9.5
2017-10-30T02:55:41.979Z,1.8
2017-10-30T02:56:41.943Z,9.5
2017-10-30T02:57:41.957Z,9.5
2017-10-30T02:58:41.923Z,9.5
2017-10-30T02:59:41.937Z,9.5
2017-10-30T03:00:41.975Z,1.8
2017-10-30T03:01:41.931Z,1.8
2017-10-30T03:02:41.945Z,0
2017-10-30T03:03:41.922Z,3.9
2017-10-30T03:04:41.958Z,3.9
2017-10-30T03:05:41.973Z,0
2017-10-30T03:06:41.916Z,0
2017-10-30T03:07:41.916Z,0
2017-10-30T03:08:41.900Z,0
2017-10-30T03:09:41.908Z,0
2017-10-30T03:10:42.027Z,0
2017-10-30T03:11:41.906Z,0
2017-10-30T03:12:41.924Z,0
2017-10-30T03:13:41.934Z,0
2017-10-30T03:14:41.904Z,0
2017-10-30T03:15:41.975Z,0
2017-10-30T03:16:41.926Z,0
2017-10-30T03:17:41.932Z,0
2017-10-30T03:18:41.922Z,0
2017-10-30T03:19:41.921Z,0
2017-10-30T03:20:41.931Z,0
2017-10-30T03:21:41.922Z,0
2017-10-30T03:22:41.936Z,0
2017-10-30T03:23:41.926Z,0
2017-10-30T03:24:41.917Z,0
2017-10-30T03:25:41.910Z,0
2017-10-30T03:26:41.900Z,0
2017-10-30T03:27:41.921Z,0
2017-10-30T03:28:41.899Z,0
2017-10-30T03:29:41.921Z,0
2017-10-30T03:30:41.897Z,0
2017-10-30T03:31:41.905Z,6.6
2017-10-30T03:32:41.923Z,1.8
2017-10-30T03:33:41.908Z,3.9
2017-10-30T03:34:41.892Z,3.9
2017-10-30T03:35:41.927Z,1.8
2017-10-30T03:36:41.901Z,6.6
2017-10-30T03:37:41.937Z,1.8
2017-10-30T03:38:41.914Z,3.9
2017-10-30T03:39:41.909Z,9.5
2017-10-30T03:40:41.890Z,1.8
2017-10-30T03:41:41.913Z,0
2017-10-30T03:42:41.887Z,1.8
2017-10-30T03:43:41.903Z,3.9
2017-10-30T03:44:41.919Z,1.8
2017-10-30T03:45:41.909Z,1.8
2017-10-30T03:46:41.894Z,3.9
2017-10-30T03:47:41.896Z,9.5
2017-10-30T03:48:41.896Z,6.6
2017-10-30T03:49:41.898Z,3.9
2017-10-30T03:50:41.942Z,6.6
2017-10-30T03:51:41.900Z,3.9
2017-10-30T03:52:41.916Z,3.9
2017-10-30T03:53:41.896Z,0
2017-10-30T03:54:41.917Z,1.8
2017-10-30T03:55:41.891Z,3.9
2017-10-30T03:56:41.935Z,1.8
2017-10-30T03:57:41.907Z,6.6
2017-10-30T03:58:41.914Z,3.9
2017-10-30T03:59:41.881Z,1.8
2017-10-30T04:00:41.904Z,6.6
2017-10-30T04:01:41.971Z,3.9
2017-10-30T04:02:41.914Z,3.9
2017-10-30T04:03:41.926Z,9.5
2017-10-30T04:04:41.926Z,1.8
2017-10-30T04:05:41.875Z,1.8
2017-10-30T04:06:41.938Z,1.8
2017-10-30T04:07:41.879Z,1.8
2017-10-30T04:08:41.915Z,6.6
2017-10-30T04:09:41.898Z,0
2017-10-30T04:10:41.890Z,0
2017-10-30T04:11:41.948Z,3.9
2017-10-30T04:12:41.882Z,3.9
2017-10-30T04:13:41.882Z,0
2017-10-30T04:14:41.905Z,1.8
2017-10-30T04:15:41.880Z,3.9
2017-10-30T04:16:41.981Z,0
2017-10-30T04:17:41.869Z,0
2017-10-30T04:18:41.877Z,3.9
2017-10-30T04:19:41.906Z,3.9
2017-10-30T04:20:41.871Z,1.8
2017-10-30T04:21:41.946Z,1.8
2017-10-30T04:22:41.862Z,1.8
2017-10-30T04:23:41.879Z,6.6
2017-10-30T04:24:41.901Z,0
2017-10-30T04:25:41.895Z,6.6
2017-10-30T04:26:41.908Z,0
2017-10-30T04:27:41.884Z,0
2017-10-30T04:28:41.862Z,0
2017-10-30T04:29:41.865Z,0
2017-10-30T04:30:41.868Z,3.9
2017-10-30T04:31:41.881Z,6.6
2017-10-30T04:32:41.878Z,6.6
2017-10-30T04:33:41.864Z,3.9
2017-10-30T04:34:41.883Z,6.6
2017-10-30T04:35:41.860Z,6.6
2017-10-30T04:36:41.888Z,9.5
2017-10-30T04:37:41.859Z,3.9
2017-10-30T04:38:41.860Z,3.9
2017-10-30T04:39:41.888Z,6.6
2017-10-30T04:40:41.878Z,9.5
2017-10-30T04:41:41.884Z,3.9
2017-10-30T04:42:41.908Z,3.9
2017-10-30T04:43:41.886Z,3.9
2017-10-30T04:44:41.874Z,3.9
2017-10-30T04:45:41.869Z,6.6
2017-10-30T04:46:41.853Z,0
2017-10-30T04:47:41.879Z,3.9
2017-10-30T04:48:41.875Z,1.8
2017-10-30T04:49:41.875Z,1.8
2017-10-30T04:50:41.891Z,3.9
2017-10-30T04:51:41.913Z,1.8
2017-10-30T04:52:41.867Z,1.8
2017-10-30T04:53:41.855Z,1.8
2017-10-30T04:54:41.871Z,1.8
2017-10-30T04:55:41.875Z,0
2017-10-30T04:56:41.892Z,0
2017-10-30T04:57:41.868Z,0
2017-10-30T04:58:41.840Z,1.8
2017-10-30T04:59:41.882Z,0
2017-10-30T05:00:41.866Z,3.9
2017-10-30T05:01:41.874Z,6.6
2017-10-30T05:02:41.885Z,1.8
2017-10-30T05:03:41.924Z,3.9
2017-10-30T05:04:41.870Z,9.5
2017-10-30T05:05:41.865Z,9.5
2017-10-30T05:06:41.855Z,6.6
2017-10-30T05:07:41.872Z,9.5
2017-10-30T05:08:41.897Z,1.8
2017-10-30T05:09:41.861Z,3.9
2017-10-30T05:10:41.844Z,3.9
2017-10-30T05:11:41.872Z,0
2017-10-30T05:12:41.871Z,0
2017-10-30T05:13:41.878Z,0
2017-10-30T05:14:41.842Z,1.8
2017-10-30T05:15:41.839Z,3.9
2017-10-30T05:20:41.890Z,1.8
2017-10-30T05:21:41.853Z,1.8
2017-10-30T05:22:41.879Z,9.5
2017-10-30T05:23:41.849Z,3.9
2017-10-30T05:24:41.876Z,1.8
2017-10-30T05:25:41.847Z,0
2017-10-30T05:26:41.878Z,0
2017-10-30T05:27:41.910Z,1.8
2017-10-30T05:28:41.861Z,0
2017-10-30T05:29:41.823Z,0
2017-10-30T05:30:41.826Z,0
2017-10-30T05:31:41.834Z,0
2017-10-30T05:32:41.878Z,0
2017-10-30T05:33:41.852Z,6.6
2017-10-30T05:34:41.840Z,3.9
2017-10-30T05:35:41.877Z,0
2017-10-30T05:36:41.827Z,1.8
2017-10-30T05:37:41.890Z,1.8
2017-10-30T05:38:41.839Z,1.8
2017-10-30T05:39:41.834Z,1.8
2017-10-30T05:40:41.834Z,0
2017-10-30T05:41:41.874Z,0
2017-10-30T05:42:41.899Z,0
2017-10-30T05:43:41.843Z,0
2017-10-30T05:44:41.833Z,0
2017-10-30T05:45:41.817Z,0
2017-10-30T05:46:41.905Z,1.8
2017-10-30T05:48:16.533Z,0
2017-10-30T05:48:41.836Z,0
2017-10-30T05:49:41.831Z,3.9
2017-10-30T05:50:41.832Z,3.9
2017-10-30T05:51:41.823Z,0
2017-10-30T05:52:41.920Z,1.8
2017-10-30T05:53:41.830Z,1.8
2017-10-30T05:54:41.818Z,0
2017-10-30T05:55:41.844Z,0
2017-10-30T05:56:41.871Z,9.5
2017-10-30T05:57:41.885Z,0
2017-10-30T05:58:41.820Z,1.8
2017-10-30T05:59:41.817Z,1.8
2017-10-30T06:00:41.836Z,0
2017-10-30T06:01:41.828Z,1.8
2017-10-30T06:02:41.855Z,0
2017-10-30T06:03:41.818Z,3.9
2017-10-30T06:04:41.814Z,1.8
2017-10-30T06:05:41.840Z,0
2017-10-30T06:06:41.852Z,1.8
2017-10-30T06:07:41.859Z,3.9
2017-10-30T06:08:41.841Z,0
2017-10-30T06:09:41.833Z,0
2017-10-30T06:10:41.823Z,0
2017-10-30T06:11:42.153Z,1.8
2017-10-30T06:12:41.926Z,0
2017-10-30T06:13:41.820Z,0
2017-10-30T06:14:41.821Z,0
2017-10-30T06:15:41.810Z,0
2017-10-30T06:16:41.833Z,1.8
2017-10-30T06:17:41.873Z,0
2017-10-30T06:18:41.844Z,0
2017-10-30T06:19:41.840Z,3.9
2017-10-30T06:20:41.814Z,0
2017-10-30T06:21:41.853Z,1.8
2017-10-30T06:22:41.905Z,0
2017-10-30T06:23:43.016Z,0
2017-10-30T06:24:41.834Z,0
2017-10-30T06:25:41.843Z,0
2017-10-30T06:26:41.841Z,3.9
2017-10-30T06:27:41.890Z,0
2017-10-30T06:28:41.866Z,1.8
2017-10-30T06:29:41.812Z,0
2017-10-30T06:30:41.810Z,0
2017-10-30T06:31:41.798Z,0
2017-10-30T06:32:41.868Z,0
2017-10-30T06:33:41.917Z,0
2017-10-30T06:34:41.815Z,0
2017-10-30T06:35:41.797Z,1.8
2017-10-30T06:36:41.821Z,1.8
2017-10-30T06:37:41.898Z,0
2017-10-30T06:38:41.796Z,0
2017-10-30T06:39:41.804Z,0
2017-10-30T06:40:41.803Z,0
2017-10-30T06:41:41.808Z,0
2017-10-30T06:42:41.866Z,0
2017-10-30T06:43:41.793Z,0
2017-10-30T06:44:41.798Z,0
2017-10-30T06:45:41.822Z,0
2017-10-30T06:46:41.782Z,0
2017-10-30T06:47:41.754Z,0
2017-10-30T06:48:41.817Z,0
2017-10-30T06:49:41.796Z,0
2017-10-30T06:50:41.804Z,0
2017-10-30T06:51:41.958Z,0
2017-10-30T06:52:41.792Z,0
2017-10-30T06:53:41.789Z,1.8
2017-10-30T06:54:41.827Z,3.9
2017-10-30T06:55:41.792Z,1.8
2017-10-30T06:56:41.814Z,0
2017-10-30T06:57:41.785Z,0
2017-10-30T06:58:41.820Z,0
2017-10-30T06:59:41.783Z,1.8
2017-10-30T07:00:41.822Z,0
2017-10-30T07:01:41.782Z,0
2017-10-30T07:02:41.767Z,0
2017-10-30T07:04:16.415Z,0
2017-10-30T07:04:41.815Z,0
2017-10-30T07:05:41.784Z,0
2017-10-30T07:06:41.816Z,0
2017-10-30T07:07:41.776Z,0
2017-10-30T07:08:41.841Z,0
2017-10-30T07:09:41.784Z,0
2017-10-30T07:10:41.813Z,0
2017-10-30T07:11:41.828Z,0
2017-10-30T07:12:41.805Z,1.8
2017-10-30T07:13:41.794Z,0
2017-10-30T07:14:41.840Z,0
2017-10-30T07:15:41.785Z,1.8
2017-10-30T07:16:41.781Z,0
2017-10-30T07:17:41.754Z,0
2017-10-30T07:18:41.817Z,0
2017-10-30T07:19:41.780Z,0
2017-10-30T07:20:41.819Z,0
2017-10-30T07:21:41.793Z,0
2017-10-30T07:22:41.830Z,0
2017-10-30T07:23:41.841Z,0
2017-10-30T07:24:41.810Z,0
2017-10-30T07:25:41.817Z,0
2017-10-30T07:26:41.772Z,0
2017-10-30T07:27:41.821Z,0
2017-10-30T07:28:41.838Z,0
2017-10-30T07:29:41.781Z,0
2017-10-30T07:30:41.771Z,0
2017-10-30T07:31:41.800Z,0
2017-10-30T07:32:41.821Z,3.9
2017-10-30T07:33:41.822Z,3.9
2017-10-30T07:34:41.791Z,0
2017-10-30T07:35:41.803Z,0
2017-10-30T07:36:41.792Z,0
2017-10-30T07:37:41.764Z,0
2017-10-30T07:38:41.820Z,0
2017-10-30T07:39:41.774Z,0
2017-10-30T07:40:41.788Z,3.9
2017-10-30T07:41:41.793Z,1.8
2017-10-30T07:42:41.794Z,0
2017-10-30T07:43:41.844Z,0
2017-10-30T07:44:41.769Z,0
2017-10-30T07:45:41.835Z,0
2017-10-30T07:46:41.765Z,0
2017-10-30T07:47:41.761Z,1.8
2017-10-30T07:48:41.833Z,0
2017-10-30T07:49:41.803Z,0
2017-10-30T07:50:41.763Z,6.6
2017-10-30T07:51:41.787Z,6.6
2017-10-30T07:52:41.766Z,9.5
2017-10-30T07:53:41.853Z,6.6
2017-10-30T07:54:41.774Z,9.5
2017-10-30T07:55:41.759Z,0
2017-10-30T07:56:41.756Z,9.5
2017-10-30T07:57:41.784Z,9.5
2017-10-30T07:58:41.929Z,3.9
2017-10-30T07:59:41.798Z,9.5
2017-10-30T08:00:41.780Z,9.5
2017-10-30T08:01:41.753Z,3.9
2017-10-30T08:02:41.760Z,1.8
2017-10-30T08:03:41.810Z,12.4
2017-10-30T08:04:41.764Z,9.5
2017-10-30T08:05:41.766Z,9.5
2017-10-30T08:06:41.758Z,9.5
2017-10-30T08:07:41.784Z,6.6
2017-10-30T08:08:41.755Z,9.5
2017-10-30T08:09:41.748Z,9.5
2017-10-30T08:10:41.768Z,6.6
2017-10-30T08:11:41.750Z,1.8
2017-10-30T08:12:41.765Z,6.6
2017-10-30T08:13:41.749Z,6.6
2017-10-30T08:14:41.759Z,12.4
2017-10-30T08:15:41.788Z,9.5
2017-10-30T08:16:41.809Z,9.5
2017-10-30T08:17:41.778Z,6.6
2017-10-30T08:18:41.752Z,9.5
2017-10-30T08:19:41.767Z,6.6
2017-10-30T08:20:41.769Z,9.5
2017-10-30T08:21:41.752Z,9.5
2017-10-30T08:22:41.782Z,9.5
2017-10-30T08:23:41.804Z,12.4
2017-10-30T08:24:41.753Z,12.4
2017-10-30T08:25:41.758Z,1.8
2017-10-30T08:26:41.761Z,0
2017-10-30T08:27:41.774Z,6.6
2017-10-30T08:28:41.781Z,0
2017-10-30T08:29:41.814Z,6.6
2017-10-30T08:30:41.782Z,6.6
2017-10-30T08:31:41.766Z,6.6
2017-10-30T08:32:41.738Z,9.5
2017-10-30T08:33:41.745Z,15.4
2017-10-30T08:34:41.810Z,9.5
2017-10-30T08:35:41.747Z,12.4
2017-10-30T08:36:41.770Z,12.4
2017-10-30T08:37:41.783Z,15.4
2017-10-30T08:38:41.784Z,15.4
2017-10-30T08:39:41.819Z,9.5
2017-10-30T08:40:41.764Z,15.4
2017-10-30T08:41:41.765Z,3.9
2017-10-30T08:42:41.745Z,6.6
2017-10-30T08:43:41.772Z,21.3
2017-10-30T08:44:41.821Z,9.5
2017-10-30T08:45:41.785Z,6.6
2017-10-30T08:46:41.767Z,6.6
2017-10-30T08:47:41.771Z,6.6
2017-10-30T08:48:41.768Z,6.6
2017-10-30T08:49:41.841Z,1.8
2017-10-30T08:50:41.791Z,12.4
2017-10-30T08:51:41.752Z,9.5
2017-10-30T08:52:41.750Z,9.5
2017-10-30T08:53:41.740Z,3.9
2017-10-30T08:54:41.821Z,6.6
2017-10-30T08:55:41.746Z,1.8
2017-10-30T08:56:41.769Z,6.6
2017-10-30T08:57:41.775Z,12.4
2017-10-30T08:58:41.764Z,9.5
2017-10-30T08:59:41.792Z,3.9
2017-10-30T09:00:41.753Z,6.6
2017-10-30T09:01:41.741Z,15.4
2017-10-30T09:02:41.733Z,12.4
2017-10-30T09:03:41.763Z,9.5
2017-10-30T09:04:41.854Z,9.5
2017-10-30T09:05:41.751Z,0
2017-10-30T09:06:41.782Z,6.6
2017-10-30T09:07:41.772Z,6.6
2017-10-30T09:08:41.742Z,3.9
2017-10-30T09:09:41.853Z,6.6
2017-10-30T09:10:41.770Z,6.6
2017-10-30T09:11:41.747Z,9.5
2017-10-30T09:12:41.766Z,3.9
2017-10-30T09:13:41.758Z,3.9
2017-10-30T09:14:41.795Z,6.6
2017-10-30T09:15:41.749Z,9.5
2017-10-30T09:16:41.753Z,12.4
2017-10-30T09:17:41.770Z,12.4
2017-10-30T09:18:41.738Z,9.5
2017-10-30T09:19:41.798Z,9.5
2017-10-30T09:20:41.744Z,6.6
2017-10-30T09:21:41.734Z,9.5
2017-10-30T09:22:41.761Z,6.6
2017-10-30T09:23:41.741Z,9.5
2017-10-30T09:24:41.836Z,15.4
2017-10-30T09:25:41.736Z,12.4
2017-10-30T09:26:41.742Z,12.4
2017-10-30T09:27:41.735Z,18.3
2017-10-30T09:28:41.735Z,3.9
2017-10-30T09:29:41.788Z,6.6
2017-10-30T09:30:41.766Z,12.4
2017-10-30T09:31:41.708Z,9.5
2017-10-30T09:32:41.751Z,9.5
2017-10-30T09:33:41.761Z,6.6
2017-10-30T09:34:41.801Z,6.6
2017-10-30T09:35:41.751Z,6.6
2017-10-30T09:36:41.784Z,6.6
2017-10-30T09:37:41.732Z,6.6
2017-10-30T09:38:41.758Z,9.5
2017-10-30T09:39:41.842Z,9.5
2017-10-30T09:40:41.762Z,3.9
2017-10-30T09:41:41.755Z,9.5
2017-10-30T09:42:41.764Z,6.6
2017-10-30T09:43:41.745Z,15.4
2017-10-30T09:44:41.819Z,3.9
2017-10-30T09:45:41.728Z,6.6
2017-10-30T09:46:41.744Z,18.3
2017-10-30T09:47:41.743Z,12.4
2017-10-30T09:48:41.767Z,9.5
2017-10-30T09:49:41.807Z,12.4
2017-10-30T09:50:41.740Z,6.6
2017-10-30T09:51:41.740Z,6.6
2017-10-30T09:52:41.756Z,6.6
2017-10-30T09:53:41.740Z,9.5
2017-10-30T09:54:41.749Z,9.5
2017-10-30T09:55:41.755Z,6.6
2017-10-30T09:56:41.737Z,12.4
2017-10-30T09:57:41.759Z,1.8
2017-10-30T09:58:41.765Z,6.6
2017-10-30T09:59:41.729Z,9.5
2017-10-30T10:00:41.780Z,6.6
2017-10-30T10:01:41.760Z,9.5
2017-10-30T10:02:41.786Z,12.4
2017-10-30T10:03:41.737Z,9.5
2017-10-30T10:04:41.724Z,3.9
2017-10-30T10:05:41.783Z,0
2017-10-30T10:06:41.740Z,1.8
2017-10-30T10:07:41.734Z,1.8
2017-10-30T10:08:41.733Z,3.9
2017-10-30T10:09:41.765Z,6.6
2017-10-30T10:10:41.804Z,3.9
2017-10-30T10:11:41.764Z,3.9
2017-10-30T10:12:41.740Z,3.9
2017-10-30T10:13:41.754Z,6.6
2017-10-30T10:14:41.765Z,1.8
2017-10-30T10:15:41.800Z,3.9
2017-10-30T10:16:41.747Z,9.5
2017-10-30T10:17:41.743Z,6.6
2017-10-30T10:18:41.738Z,12.4
2017-10-30T10:19:41.760Z,9.5
2017-10-30T10:20:41.827Z,3.9
2017-10-30T10:21:41.747Z,12.4
2017-10-30T10:22:41.751Z,12.4
2017-10-30T10:23:41.733Z,6.6
2017-10-30T10:24:41.780Z,3.9
2017-10-30T10:25:41.821Z,9.5
2017-10-30T10:26:41.759Z,1.8
2017-10-30T10:27:41.778Z,9.5
2017-10-30T10:28:41.736Z,9.5
2017-10-30T10:29:41.732Z,3.9
2017-10-30T10:30:41.850Z,12.4
2017-10-30T10:31:41.761Z,3.9
2017-10-30T10:32:41.765Z,9.5
2017-10-30T10:33:41.742Z,6.6
2017-10-30T10:34:41.728Z,3.9
2017-10-30T10:35:41.810Z,9.5
2017-10-30T10:36:41.752Z,1.8
2017-10-30T10:37:41.749Z,6.6
2017-10-30T10:38:41.746Z,0
2017-10-30T10:39:41.742Z,0
2017-10-30T10:40:41.773Z,6.6
2017-10-30T10:41:41.787Z,6.6
2017-10-30T10:42:41.748Z,3.9
2017-10-30T10:43:41.733Z,3.9
2017-10-30T10:44:41.761Z,1.8
2017-10-30T10:45:41.733Z,3.9
2017-10-30T10:46:41.753Z,9.5
2017-10-30T10:47:41.743Z,3.9
2017-10-30T10:48:41.742Z,9.5
2017-10-30T10:49:41.770Z,15.4
2017-10-30T10:50:41.782Z,3.9
2017-10-30T10:51:41.760Z,3.9
2017-10-30T10:52:41.749Z,6.6
2017-10-30T10:53:41.754Z,3.9
2017-10-30T10:54:41.760Z,1.8
2017-10-30T10:55:41.739Z,1.8
2017-10-30T10:56:41.729Z,6.6
2017-10-30T10:57:41.722Z,3.9
2017-10-30T10:58:41.756Z,3.9
2017-10-30T10:59:41.731Z,9.5
2017-10-30T11:00:41.734Z,6.6
2017-10-30T11:01:41.726Z,6.6
2017-10-30T11:02:41.765Z,0
2017-10-30T11:03:41.760Z,6.6
2017-10-30T11:04:41.746Z,3.9
2017-10-30T11:05:41.735Z,12.4
2017-10-30T11:06:41.778Z,6.6
2017-10-30T11:07:41.745Z,3.9
2017-10-30T11:08:41.760Z,12.4
2017-10-30T11:09:41.742Z,1.8
2017-10-30T11:10:41.749Z,3.9
2017-10-30T11:11:41.775Z,6.6
2017-10-30T11:12:41.764Z,9.5
2017-10-30T11:13:41.756Z,3.9
2017-10-30T11:14:41.728Z,1.8
2017-10-30T11:15:41.743Z,6.6
2017-10-30T11:16:41.802Z,1.8
2017-10-30T11:17:41.777Z,9.5
2017-10-30T11:18:41.728Z,6.6
2017-10-30T11:19:41.765Z,9.5
2017-10-30T11:20:41.800Z,12.4
2017-10-30T11:21:41.831Z,6.6
2017-10-30T11:22:41.729Z,6.6
2017-10-30T11:23:41.735Z,6.6
2017-10-30T11:24:41.732Z,3.9
2017-10-30T11:25:41.733Z,0
2017-10-30T11:26:41.810Z,6.6
2017-10-30T11:27:41.724Z,1.8
2017-10-30T11:28:41.759Z,6.6
2017-10-30T11:29:41.739Z,3.9
2017-10-30T11:30:41.703Z,0
2017-10-30T11:31:41.838Z,3.9
2017-10-30T11:32:41.724Z,0
2017-10-30T11:33:41.768Z,3.9
2017-10-30T11:34:41.731Z,3.9
2017-10-30T11:35:41.760Z,1.8
2017-10-30T11:36:52.710Z,1.8
2017-10-30T11:37:42.266Z,0
2017-10-30T11:38:44.152Z,6.6
2017-10-30T11:39:41.793Z,3.9
2017-10-30T11:40:43.998Z,0
2017-10-30T11:41:41.865Z,0
2017-10-30T11:42:41.795Z,0
2017-10-30T11:43:41.725Z,1.8
2017-10-30T11:44:41.762Z,1.8
2017-10-30T11:45:41.694Z,1.8
2017-10-30T11:46:41.779Z,1.8
2017-10-30T11:47:41.725Z,1.8
2017-10-30T11:48:41.736Z,0
2017-10-30T11:49:41.783Z,0
2017-10-30T11:50:41.729Z,0
2017-10-30T11:51:41.730Z,0
2017-10-30T11:52:41.798Z,3.9
2017-10-30T11:53:41.727Z,0
2017-10-30T11:54:41.728Z,0
2017-10-30T11:55:41.769Z,0
2017-10-30T11:56:41.748Z,1.8
2017-10-30T11:57:41.786Z,1.8
2017-10-30T11:58:41.738Z,1.8
2017-10-30T11:59:44.025Z,3.9
2017-10-30T12:00:43.419Z,3.9
2017-10-30T12:01:42.696Z,1.8
2017-10-30T12:02:41.850Z,0
2017-10-30T12:03:41.830Z,1.8
2017-10-30T12:04:41.966Z,9.5
2017-10-30T12:05:41.873Z,1.8
2017-10-30T12:06:43.877Z,0
2017-10-30T12:07:42.979Z,0
2017-10-30T12:08:41.874Z,0
2017-10-30T12:09:41.759Z,0
2017-10-30T12:10:42.812Z,0
2017-10-30T12:11:41.807Z,0
2017-10-30T12:12:41.895Z,3.9
2017-10-30T12:13:41.930Z,1.8
2017-10-30T12:14:41.860Z,6.6
2017-10-30T12:15:41.714Z,3.9
2017-10-30T12:16:41.721Z,3.9
2017-10-30T12:17:41.755Z,0
2017-10-30T12:18:42.405Z,3.9
2017-10-30T12:19:43.058Z,3.9
2017-10-30T12:20:41.916Z,9.5
2017-10-30T12:21:41.931Z,6.6
2017-10-30T12:22:41.906Z,9.5
2017-10-30T12:24:01.635Z,6.6
2017-10-30T12:24:41.855Z,3.9
2017-10-30T12:25:41.829Z,3.9
2017-10-30T12:26:41.779Z,0
2017-10-30T12:27:44.133Z,9.5
2017-10-30T12:28:43.203Z,9.5
2017-10-30T12:29:41.815Z,9.5
2017-10-30T12:30:42.958Z,3.9
2017-10-30T12:31:42.129Z,9.5
2017-10-30T12:32:41.800Z,9.5
2017-10-30T12:33:41.768Z,6.6
2017-10-30T12:34:42.055Z,6.6
2017-10-30T12:35:42.119Z,6.6
2017-10-30T12:36:43.673Z,6.6
2017-10-30T12:37:42.799Z,1.8
2017-10-30T12:38:42.020Z,6.6
2017-10-30T12:39:42.046Z,12.4
2017-10-30T12:40:41.718Z,15.4
2017-10-30T12:41:41.727Z,9.5
2017-10-30T12:42:41.710Z,9.5
2017-10-30T12:43:44.925Z,3.9
2017-10-30T12:44:41.847Z,9.5
2017-10-30T12:45:41.814Z,3.9
2017-10-30T12:46:42.203Z,6.6
2017-10-30T12:47:43.932Z,9.5
2017-10-30T12:48:41.868Z,9.5
2017-10-30T12:49:41.831Z,6.6
2017-10-30T12:50:41.811Z,9.5
2017-10-30T12:51:44.013Z,3.9
2017-10-30T12:52:42.058Z,6.6
2017-10-30T12:53:42.153Z,6.6
2017-10-30T12:54:42.777Z,9.5
2017-10-30T12:55:41.905Z,6.6
2017-10-30T12:56:41.793Z,6.6
2017-10-30T12:57:42.048Z,9.5
2017-10-30T12:58:42.014Z,9.5
2017-10-30T12:59:41.954Z,12.4
2017-10-30T13:00:41.752Z,1.8
2017-10-30T13:01:41.899Z,9.5
2017-10-30T13:02:42.114Z,0
2017-10-30T13:03:42.029Z,6.6
2017-10-30T13:04:41.714Z,6.6
2017-10-30T13:05:41.717Z,9.5
2017-10-30T13:06:41.714Z,3.9
2017-10-30T13:07:41.722Z,6.6
2017-10-30T13:08:41.810Z,12.4
2017-10-30T13:09:41.750Z,12.4
2017-10-30T13:10:41.724Z,3.9
2017-10-30T13:11:41.721Z,12.4
2017-10-30T13:12:41.752Z,3.9
2017-10-30T13:13:41.836Z,3.9
2017-10-30T13:14:41.751Z,9.5
2017-10-30T13:15:41.698Z,6.6
2017-10-30T13:16:41.725Z,9.5
2017-10-30T13:17:41.724Z,3.9
2017-10-30T13:18:41.797Z,6.6
2017-10-30T13:19:41.717Z,3.9
2017-10-30T13:20:41.709Z,6.6
2017-10-30T13:21:41.724Z,3.9
2017-10-30T13:22:41.734Z,3.9
2017-10-30T13:23:41.713Z,0
2017-10-30T13:24:41.733Z,6.6
2017-10-30T13:25:41.739Z,3.9
2017-10-30T13:26:41.756Z,6.6
2017-10-30T13:27:41.719Z,3.9
2017-10-30T13:28:41.741Z,6.6
2017-10-30T13:29:41.754Z,3.9
2017-10-30T13:30:41.671Z,0
2017-10-30T13:31:41.727Z,1.8
2017-10-30T13:32:41.701Z,1.8
2017-10-30T13:33:41.712Z,3.9
2017-10-30T13:34:41.752Z,1.8
2017-10-30T13:35:41.712Z,0
2017-10-30T13:36:41.729Z,0
2017-10-30T13:37:41.745Z,1.8
2017-10-30T13:38:41.706Z,3.9
2017-10-30T13:39:41.757Z,3.9
2017-10-30T13:40:41.729Z,6.6
2017-10-30T13:41:41.723Z,0
2017-10-30T13:42:41.706Z,3.9
2017-10-30T13:43:41.703Z,3.9
2017-10-30T13:44:41.776Z,3.9
2017-10-30T13:45:43.555Z,1.8
2017-10-30T13:46:41.705Z,1.8
2017-10-30T13:47:41.703Z,0
2017-10-30T13:48:41.711Z,3.9
2017-10-30T13:49:41.748Z,3.9
2017-10-30T13:50:41.708Z,3.9
2017-10-30T13:51:41.715Z,3.9
2017-10-30T13:52:41.768Z,3.9
2017-10-30T13:53:41.735Z,3.9
2017-10-30T13:54:41.775Z,1.8
2017-10-30T13:55:41.719Z,0
2017-10-30T13:56:41.723Z,0
2017-10-30T13:57:41.736Z,0
2017-10-30T13:58:41.723Z,0
2017-10-30T13:59:41.746Z,0
2017-10-30T14:00:41.735Z,0
2017-10-30T14:01:41.866Z,0
2017-10-30T14:02:41.706Z,0
2017-10-30T14:03:41.717Z,0
2017-10-30T14:04:41.785Z,0
2017-10-30T14:05:41.697Z,0
2017-10-30T14:06:41.703Z,0
2017-10-30T14:07:41.694Z,0
2017-10-30T14:08:41.748Z,0